PGT273A EDDH-LTFJ
Flight info
| Callsign | PGT273A |
|---|---|
| Flight time | N/A |
| Altitude | 35000 |
| Route | AMLUH3B AMLUH M852 DENIX DCT ZUCKA DCT OMELO DCT EVIKU DCT PEPIK DCT ERGOM DCT TIMUR L606 GASRU DCT ETOPO DCT ADORU UM19 IBODU |
| Aircraft | A320/M-SDFGHIJ1LORVWY/LB1 |
Departure
| Time | 2026-05-01 14:37 |
|---|---|
| Airport | Hamburg Helmut Schmidt Airport (EDDH) |
Arrival
| Time | N/A |
|---|---|
| Airport | Istanbul Sabiha Gökçen International Airport (LTFJ) |
| Time | Latitude | Longitude | Altitude | Speed | Heading |
|---|---|---|---|---|---|
| 2026-05-01 13:48 | 53.63292 | 10.00358 | 49 ft | 0 kts | 87° |
| 2026-05-01 14:29 | 53.63292 | 10.00356 | 48 ft | 2 kts | 87° |
| 2026-05-01 14:30 | 53.63290 | 10.00270 | 48 ft | 2 kts | 87° |
| 2026-05-01 14:30 | 53.63289 | 10.00240 | 48 ft | 3 kts | 70° |
| 2026-05-01 14:30 | 53.63284 | 10.00222 | 43 ft | 2 kts | 58° |
| 2026-05-01 14:31 | 53.63262 | 10.00185 | 44 ft | 2 kts | 24° |
| 2026-05-01 14:31 | 53.63245 | 10.00178 | 45 ft | 3 kts | 352° |
| 2026-05-01 14:31 | 53.63242 | 10.00178 | 45 ft | 0 kts | 352° |
| 2026-05-01 14:33 | 53.63243 | 10.00178 | 45 ft | 1 kts | 352° |
| 2026-05-01 14:34 | 53.63261 | 10.00175 | 43 ft | 4 kts | 354° |
| 2026-05-01 14:34 | 53.63308 | 10.00168 | 48 ft | 8 kts | 355° |
| 2026-05-01 14:34 | 53.63358 | 10.00162 | 48 ft | 6 kts | 356° |
| 2026-05-01 14:34 | 53.63407 | 10.00156 | 48 ft | 9 kts | 356° |
| 2026-05-01 14:35 | 53.63461 | 10.00150 | 48 ft | 7 kts | 356° |
| 2026-05-01 14:35 | 53.63507 | 10.00143 | 48 ft | 6 kts | 348° |
| 2026-05-01 14:35 | 53.63540 | 10.00115 | 50 ft | 6 kts | 323° |
| 2026-05-01 14:35 | 53.63579 | 10.00060 | 52 ft | 9 kts | 320° |
| 2026-05-01 14:36 | 53.63613 | 10.00010 | 52 ft | 5 kts | 306° |
| 2026-05-01 14:36 | 53.63603 | 9.99967 | 52 ft | 2 kts | 229° |
| 2026-05-01 14:36 | 53.63597 | 9.99954 | 50 ft | 0 kts | 229° |
| 2026-05-01 14:36 | 53.63521 | 9.99804 | 50 ft | 50 kts | 230° |
| 2026-05-01 14:37 | 53.63147 | 9.99046 | 46 ft | 115 kts | 230° |
| 2026-05-01 14:37 | 53.62524 | 9.97775 | 46 ft | 164 kts | 227° |
| 2026-05-01 14:37 | 53.61797 | 9.96280 | 670 ft | 163 kts | 228° |
| 2026-05-01 14:37 | 53.61074 | 9.94797 | 1427 ft | 165 kts | 226° |
| 2026-05-01 14:38 | 53.60342 | 9.93306 | 2134 ft | 166 kts | 228° |
| 2026-05-01 14:38 | 53.59604 | 9.91801 | 2826 ft | 166 kts | 226° |
| 2026-05-01 14:38 | 53.58861 | 9.90286 | 3430 ft | 172 kts | 226° |
| 2026-05-01 14:38 | 53.58054 | 9.88648 | 3706 ft | 192 kts | 227° |
| 2026-05-01 14:39 | 53.57114 | 9.86919 | 3920 ft | 211 kts | 212° |
| 2026-05-01 14:39 | 53.55715 | 9.86263 | 4423 ft | 214 kts | 172° |
| 2026-05-01 14:39 | 53.54337 | 9.87259 | 4987 ft | 224 kts | 143° |
| 2026-05-01 14:39 | 53.53104 | 9.88894 | 5705 ft | 228 kts | 142° |
| 2026-05-01 14:40 | 53.52019 | 9.90865 | 6449 ft | 235 kts | 123° |
| 2026-05-01 14:40 | 53.51461 | 9.93483 | 7165 ft | 244 kts | 99° |
| 2026-05-01 14:40 | 53.51403 | 9.96365 | 7884 ft | 249 kts | 94° |
| 2026-05-01 14:40 | 53.51380 | 9.99288 | 8648 ft | 251 kts | 94° |
| 2026-05-01 14:41 | 53.51350 | 10.02236 | 9432 ft | 253 kts | 96° |
| 2026-05-01 14:41 | 53.51056 | 10.05135 | 10195 ft | 252 kts | 111° |
| 2026-05-01 14:41 | 53.50339 | 10.07810 | 10900 ft | 252 kts | 120° |
| 2026-05-01 14:41 | 53.49535 | 10.10436 | 11588 ft | 254 kts | 120° |
| 2026-05-01 14:42 | 53.48723 | 10.13092 | 12269 ft | 258 kts | 120° |
| 2026-05-01 14:42 | 53.47864 | 10.15898 | 12511 ft | 281 kts | 120° |
| 2026-05-01 14:42 | 53.46935 | 10.18934 | 12673 ft | 305 kts | 119° |
| 2026-05-01 14:42 | 53.45931 | 10.22218 | 12817 ft | 328 kts | 119° |
| 2026-05-01 14:43 | 53.44846 | 10.25659 | 12943 ft | 347 kts | 123° |
| 2026-05-01 14:43 | 53.43357 | 10.28951 | 13218 ft | 360 kts | 135° |
| 2026-05-01 14:43 | 53.41447 | 10.31696 | 13772 ft | 364 kts | 147° |
| 2026-05-01 14:43 | 53.39217 | 10.33730 | 14384 ft | 367 kts | 158° |
| 2026-05-01 14:44 | 53.36768 | 10.35016 | 14926 ft | 371 kts | 165° |
| 2026-05-01 14:44 | 53.31717 | 10.37275 | 15974 ft | 379 kts | 165° |
| 2026-05-01 14:44 | 53.29157 | 10.38424 | 16490 ft | 383 kts | 165° |
| 2026-05-01 14:45 | 53.26569 | 10.39586 | 17011 ft | 387 kts | 165° |
| 2026-05-01 14:45 | 53.21321 | 10.41936 | 18015 ft | 394 kts | 165° |
| 2026-05-01 14:45 | 53.18660 | 10.43122 | 18527 ft | 398 kts | 165° |
| 2026-05-01 14:46 | 53.15972 | 10.44315 | 18959 ft | 401 kts | 164° |
| 2026-05-01 14:46 | 53.10526 | 10.46615 | 19842 ft | 407 kts | 167° |
| 2026-05-01 14:46 | 53.07745 | 10.47549 | 20291 ft | 409 kts | 168° |
| 2026-05-01 14:47 | 53.04933 | 10.48383 | 20732 ft | 412 kts | 169° |
| 2026-05-01 14:47 | 53.02137 | 10.49167 | 21170 ft | 414 kts | 169° |
| 2026-05-01 14:47 | 52.99285 | 10.49966 | 21606 ft | 416 kts | 169° |
| 2026-05-01 14:48 | 52.93544 | 10.51659 | 22432 ft | 421 kts | 168° |
| 2026-05-01 14:48 | 52.90655 | 10.52553 | 22833 ft | 424 kts | 168° |
| 2026-05-01 14:48 | 52.84832 | 10.54383 | 23620 ft | 428 kts | 168° |
| 2026-05-01 14:49 | 52.78943 | 10.56225 | 24293 ft | 433 kts | 168° |
| 2026-05-01 14:49 | 52.72992 | 10.58055 | 24938 ft | 437 kts | 168° |
| 2026-05-01 14:50 | 52.68000 | 10.59577 | 25448 ft | 441 kts | 168° |
| 2026-05-01 14:50 | 52.60939 | 10.61721 | 26144 ft | 445 kts | 168° |
| 2026-05-01 14:51 | 52.57884 | 10.62653 | 26431 ft | 447 kts | 168° |
| 2026-05-01 14:51 | 52.51741 | 10.64533 | 26971 ft | 451 kts | 168° |
| 2026-05-01 14:52 | 52.45534 | 10.66418 | 27499 ft | 455 kts | 168° |
| 2026-05-01 14:52 | 52.42415 | 10.67362 | 27760 ft | 457 kts | 168° |
| 2026-05-01 14:52 | 52.36134 | 10.69255 | 28317 ft | 460 kts | 168° |
| 2026-05-01 14:53 | 52.32988 | 10.70203 | 28697 ft | 459 kts | 168° |
| 2026-05-01 14:53 | 52.29848 | 10.71145 | 29060 ft | 458 kts | 168° |
| 2026-05-01 14:53 | 52.26705 | 10.72088 | 29418 ft | 458 kts | 168° |
| 2026-05-01 14:53 | 52.23576 | 10.73025 | 29784 ft | 457 kts | 168° |
| 2026-05-01 14:54 | 52.20463 | 10.74048 | 30136 ft | 456 kts | 162° |
| 2026-05-01 14:54 | 52.17561 | 10.76041 | 30475 ft | 452 kts | 147° |
| 2026-05-01 14:54 | 52.15092 | 10.79168 | 30763 ft | 450 kts | 133° |
| 2026-05-01 14:54 | 52.13199 | 10.83189 | 31036 ft | 448 kts | 121° |
| 2026-05-01 14:55 | 52.11564 | 10.87420 | 31308 ft | 448 kts | 121° |
| 2026-05-01 14:55 | 52.09912 | 10.91722 | 31598 ft | 448 kts | 121° |
| 2026-05-01 14:55 | 52.08268 | 10.96014 | 31901 ft | 447 kts | 121° |
| 2026-05-01 14:55 | 52.06626 | 11.00300 | 32208 ft | 447 kts | 121° |
| 2026-05-01 14:56 | 52.04978 | 11.04583 | 32502 ft | 447 kts | 121° |
| 2026-05-01 14:56 | 52.03324 | 11.08854 | 32774 ft | 447 kts | 121° |
| 2026-05-01 14:56 | 52.01666 | 11.13126 | 33054 ft | 447 kts | 121° |
| 2026-05-01 14:56 | 52.00000 | 11.17420 | 33332 ft | 447 kts | 121° |
| 2026-05-01 14:57 | 51.98353 | 11.21654 | 33623 ft | 447 kts | 121° |
| 2026-05-01 14:57 | 51.95027 | 11.30175 | 34170 ft | 446 kts | 121° |
| 2026-05-01 14:57 | 51.93370 | 11.34417 | 34442 ft | 446 kts | 121° |
| 2026-05-01 14:58 | 51.91701 | 11.38674 | 34681 ft | 446 kts | 121° |
| 2026-05-01 14:58 | 51.90038 | 11.42918 | 34918 ft | 446 kts | 121° |
| 2026-05-01 14:58 | 51.88368 | 11.47166 | 35155 ft | 446 kts | 121° |
| 2026-05-01 14:58 | 51.86694 | 11.51405 | 35335 ft | 447 kts | 121° |
| 2026-05-01 14:59 | 51.83325 | 11.59908 | 35384 ft | 449 kts | 121° |
| 2026-05-01 14:59 | 51.79971 | 11.68369 | 35383 ft | 449 kts | 121° |
| 2026-05-01 15:00 | 51.74911 | 11.81128 | 35382 ft | 450 kts | 121° |
| 2026-05-01 15:01 | 51.71522 | 11.89619 | 35379 ft | 450 kts | 121° |
| 2026-05-01 15:01 | 51.68117 | 11.98091 | 35385 ft | 450 kts | 121° |
| 2026-05-01 15:02 | 51.64712 | 12.06558 | 35390 ft | 450 kts | 121° |
| 2026-05-01 15:02 | 51.61306 | 12.15004 | 35390 ft | 450 kts | 121° |
| 2026-05-01 15:03 | 51.57898 | 12.23451 | 35391 ft | 450 kts | 121° |
| 2026-05-01 15:03 | 51.54475 | 12.31885 | 35390 ft | 450 kts | 122° |
| 2026-05-01 15:04 | 51.51065 | 12.40247 | 35395 ft | 450 kts | 122° |
| 2026-05-01 15:04 | 51.47625 | 12.48651 | 35396 ft | 450 kts | 122° |
| 2026-05-01 15:05 | 51.44183 | 12.57050 | 35395 ft | 450 kts | 121° |
| 2026-05-01 15:05 | 51.40740 | 12.65435 | 35398 ft | 450 kts | 121° |
| 2026-05-01 15:06 | 51.37302 | 12.73739 | 35390 ft | 450 kts | 122° |
| 2026-05-01 15:06 | 51.33844 | 12.82082 | 35390 ft | 449 kts | 121° |
| 2026-05-01 15:07 | 51.30393 | 12.90419 | 35387 ft | 449 kts | 121° |
| 2026-05-01 15:07 | 51.26931 | 12.98733 | 35384 ft | 449 kts | 121° |
| 2026-05-01 15:08 | 51.23465 | 13.07019 | 35379 ft | 449 kts | 121° |
| 2026-05-01 15:08 | 51.19993 | 13.15294 | 35375 ft | 449 kts | 121° |
| 2026-05-01 15:09 | 51.16517 | 13.23564 | 35374 ft | 449 kts | 121° |
| 2026-05-01 15:10 | 51.09613 | 13.39910 | 35382 ft | 449 kts | 121° |
| 2026-05-01 15:10 | 51.04357 | 13.52261 | 35381 ft | 449 kts | 121° |
| 2026-05-01 15:11 | 50.99088 | 13.64596 | 35381 ft | 450 kts | 121° |
| 2026-05-01 15:12 | 50.95569 | 13.72803 | 35379 ft | 450 kts | 121° |
| 2026-05-01 15:12 | 50.90272 | 13.85105 | 35378 ft | 450 kts | 121° |
| 2026-05-01 15:14 | 50.80678 | 14.04592 | 35363 ft | 456 kts | 135° |
| 2026-05-01 15:14 | 50.73639 | 14.14738 | 35362 ft | 457 kts | 134° |
| 2026-05-01 15:15 | 50.64241 | 14.28275 | 35360 ft | 458 kts | 134° |
| 2026-05-01 15:16 | 50.54795 | 14.41764 | 35369 ft | 459 kts | 134° |
| 2026-05-01 15:18 | 50.43031 | 14.58666 | 35365 ft | 459 kts | 131° |
| 2026-05-01 15:19 | 50.34168 | 14.73047 | 35365 ft | 459 kts | 130° |
| 2026-05-01 15:19 | 50.27432 | 14.83723 | 35367 ft | 460 kts | 131° |
| 2026-05-01 15:20 | 50.20646 | 14.94309 | 35360 ft | 459 kts | 131° |
| 2026-05-01 15:21 | 50.16155 | 15.01336 | 35365 ft | 459 kts | 131° |
| 2026-05-01 15:21 | 50.11635 | 15.08395 | 35366 ft | 460 kts | 131° |
| 2026-05-01 15:22 | 50.05602 | 15.17772 | 35368 ft | 460 kts | 131° |
| 2026-05-01 15:22 | 50.01069 | 15.24793 | 35364 ft | 460 kts | 130° |
| 2026-05-01 15:23 | 49.96527 | 15.31825 | 35359 ft | 460 kts | 130° |
| 2026-05-01 15:23 | 49.91984 | 15.38837 | 35355 ft | 460 kts | 130° |
| 2026-05-01 15:24 | 49.87433 | 15.45824 | 35351 ft | 460 kts | 130° |
| 2026-05-01 15:24 | 49.82875 | 15.52791 | 35350 ft | 460 kts | 130° |
| 2026-05-01 15:25 | 49.78338 | 15.59714 | 35352 ft | 460 kts | 130° |
| 2026-05-01 15:25 | 49.73781 | 15.66673 | 35358 ft | 460 kts | 130° |
| 2026-05-01 15:26 | 49.69216 | 15.73627 | 35355 ft | 460 kts | 130° |
| 2026-05-01 15:26 | 49.64641 | 15.80549 | 35363 ft | 460 kts | 130° |
| 2026-05-01 15:27 | 49.60051 | 15.87468 | 35358 ft | 460 kts | 130° |
| 2026-05-01 15:28 | 49.53209 | 15.97784 | 35350 ft | 461 kts | 130° |
| 2026-05-01 15:28 | 49.48614 | 16.04684 | 35355 ft | 461 kts | 130° |
| 2026-05-01 15:29 | 49.41742 | 16.14953 | 35358 ft | 461 kts | 130° |
| 2026-05-01 15:30 | 49.32519 | 16.28678 | 35359 ft | 461 kts | 130° |
| 2026-05-01 15:31 | 49.18701 | 16.49110 | 35339 ft | 461 kts | 130° |
| 2026-05-01 15:32 | 49.09439 | 16.62714 | 35339 ft | 461 kts | 130° |
| 2026-05-01 15:34 | 48.95537 | 16.82979 | 35331 ft | 462 kts | 130° |